Postoak, Texas
Current Conditions -  °F | °C
As of 3:35 PM on Saturday 22 Nov 2014 (Local Time) from K0F2 Reporting Station
Moderate Rain Moderate Rain  
Wind Chill: 15°   Ceiling: 300
Heat Index: 15°   Visibility: 1.5mi
Dew Point: 15°   Wind: 8mph
Humidity: 99%   Direction: 110°ESE
Pressure: 29.85"   Gusts: NA
Location:  33.5529°N, 97.8448°W
Report Text: K0F2 222135Z AUTO 11007KT 1 1/2SM RA OVC003 15/15 A2985 RMK AO2 P0002 T01500148
Loading
Personal Weather Stations






























Interactive Weather Map New forecast layout! Learn more

10-Day Weather Forecast

Advertisements
Track Severe Weather on mobile